createdAt,value
2022-10-01T00:08:34.692Z,100330.0
2022-10-01T00:18:34.698Z,100290.0
2022-10-01T00:28:34.713Z,100270.0
2022-10-01T00:38:34.698Z,100260.0
2022-10-01T00:48:34.715Z,100250.0
2022-10-01T00:58:34.714Z,100250.0
2022-10-01T01:08:34.723Z,100230.0
2022-10-01T01:18:34.729Z,100220.0
2022-10-01T01:28:34.730Z,100190.0
2022-10-01T01:38:34.738Z,100110.0
2022-10-01T01:48:34.739Z,100110.0
2022-10-01T01:58:34.747Z,100120.0
2022-10-01T02:08:34.749Z,100100.0
2022-10-01T02:18:34.753Z,100080.0
2022-10-01T02:28:34.788Z,100030.0
2022-10-01T02:38:34.773Z,100050.0
2022-10-01T02:48:34.768Z,100030.0
2022-10-01T03:08:34.787Z,100020.0
2022-10-01T03:18:34.919Z,100030.0
2022-10-01T03:28:34.800Z,100010.0
2022-10-01T03:38:34.804Z,100010.0
2022-10-01T03:48:34.822Z,100000.0
2022-10-01T03:58:34.809Z,100020.0
2022-10-01T04:08:34.817Z,100010.0
2022-10-01T04:18:34.832Z,100020.0
2022-10-01T04:28:34.833Z,100010.0
2022-10-01T04:38:34.835Z,100020.0
2022-10-01T04:48:34.843Z,100040.0
2022-10-01T04:58:34.853Z,100050.0
2022-10-01T05:08:34.854Z,100050.0
2022-10-01T05:18:34.859Z,100070.0
2022-10-01T05:38:34.873Z,100090.0
2022-10-01T05:48:34.880Z,100100.0
2022-10-01T05:58:34.885Z,100110.0
2022-10-01T06:08:34.892Z,100140.0
2022-10-01T06:18:34.916Z,100130.0
2022-10-01T06:28:34.900Z,100140.0
2022-10-01T06:38:34.907Z,100140.0
2022-10-01T06:48:34.923Z,100150.0
2022-10-01T06:58:34.929Z,100150.0
2022-10-01T07:08:34.932Z,100160.0
2022-10-01T07:18:34.944Z,100180.0
2022-10-01T07:28:34.943Z,100180.0
2022-10-01T07:38:34.956Z,100200.0
2022-10-01T07:48:34.958Z,100200.0
2022-10-01T07:58:34.967Z,100210.0
2022-10-01T08:18:34.973Z,100240.0
2022-10-01T08:28:34.981Z,100260.0
2022-10-01T08:38:34.991Z,100270.0
2022-10-01T08:48:34.993Z,100290.0
2022-10-01T08:58:35.004Z,100280.0
2022-10-01T09:08:35.007Z,100280.0
2022-10-01T09:18:35.005Z,100290.0
2022-10-01T09:28:35.010Z,100310.0
2022-10-01T09:38:35.028Z,100320.0
2022-10-01T09:48:35.252Z,100320.0
2022-10-01T09:58:35.042Z,100330.0
2022-10-01T10:08:35.052Z,100340.0
2022-10-01T10:18:35.062Z,100340.0
2022-10-01T10:28:38.547Z,100350.0
2022-10-01T10:38:35.075Z,100370.0
2022-10-01T10:48:35.082Z,100380.0
2022-10-01T10:58:35.100Z,100400.0
2022-10-01T11:08:35.101Z,100400.0
2022-10-01T11:18:35.108Z,100420.0
2022-10-01T11:28:35.112Z,100430.0
2022-10-01T11:38:35.116Z,100450.0
2022-10-01T11:48:35.127Z,100460.0
2022-10-01T11:58:35.132Z,100480.0
2022-10-01T12:08:35.139Z,100490.0
2022-10-01T12:18:35.141Z,100530.0
2022-10-01T12:28:35.371Z,100530.0
2022-10-01T12:38:35.148Z,100540.0
2022-10-01T12:48:35.152Z,100550.0
2022-10-01T12:58:35.167Z,100560.0
2022-10-01T13:08:35.175Z,100570.0
2022-10-01T13:18:35.184Z,100580.0
2022-10-01T13:28:35.184Z,100600.0
2022-10-01T13:38:35.184Z,100630.0
2022-10-01T13:48:35.215Z,100640.0
2022-10-01T13:58:35.206Z,100650.0
2022-10-01T14:08:35.200Z,100670.0
2022-10-01T14:18:35.227Z,100700.0
2022-10-01T14:28:35.213Z,100710.0
2022-10-01T14:38:35.224Z,100720.0
2022-10-01T14:48:35.220Z,100720.0
2022-10-01T14:58:35.235Z,100720.0
2022-10-01T15:08:35.240Z,100740.0
2022-10-01T15:18:35.243Z,100740.0
2022-10-01T15:28:35.252Z,100760.0
2022-10-01T15:38:35.259Z,100780.0
2022-10-01T15:48:35.258Z,100800.0
2022-10-01T15:58:35.264Z,100810.0
2022-10-01T16:08:35.289Z,100820.0
2022-10-01T16:18:35.279Z,100840.0
2022-10-01T16:28:35.284Z,100850.0
2022-10-01T16:38:35.284Z,100860.0
2022-10-01T16:48:35.292Z,100880.0
2022-10-01T16:58:35.292Z,100910.0
2022-10-01T17:08:35.290Z,100930.0
2022-10-01T17:18:35.305Z,100960.0
2022-10-01T17:28:35.459Z,100970.0
2022-10-01T17:38:35.306Z,100980.0
2022-10-01T17:48:35.315Z,100990.0
2022-10-01T17:58:35.319Z,101010.0
2022-10-01T18:08:54.039Z,101030.0
2022-10-01T18:23:36.509Z,101050.0
2022-10-01T18:28:36.508Z,101050.0
2022-10-01T18:33:36.518Z,101070.0
2022-10-01T18:38:36.516Z,101080.0
2022-10-01T18:43:36.524Z,101070.0
2022-10-01T18:48:36.521Z,101090.0
2022-10-01T18:53:36.517Z,101100.0
2022-10-01T18:58:36.520Z,101100.0
2022-10-01T19:03:36.524Z,101110.0
2022-10-01T19:08:36.524Z,101110.0
2022-10-01T19:13:36.530Z,101120.0
2022-10-01T19:18:36.536Z,101130.0
2022-10-01T19:23:36.536Z,101130.0
2022-10-01T19:28:36.537Z,101150.0
2022-10-01T19:33:36.568Z,101150.0
2022-10-01T19:38:36.545Z,101140.0
2022-10-01T19:43:36.545Z,101150.0
2022-10-01T19:48:36.549Z,101150.0
2022-10-01T19:53:36.548Z,101160.0
2022-10-01T19:58:36.554Z,101170.0
2022-10-01T20:03:36.555Z,101170.0
2022-10-01T20:08:36.575Z,101170.0
2022-10-01T20:13:36.561Z,101190.0
2022-10-01T20:18:36.561Z,101180.0
2022-10-01T20:23:36.569Z,101200.0
2022-10-01T20:28:36.680Z,101200.0
2022-10-01T20:33:36.577Z,101200.0
2022-10-01T20:38:36.576Z,101200.0
2022-10-01T20:43:36.579Z,101200.0
2022-10-01T20:48:36.584Z,101200.0
2022-10-01T20:53:36.575Z,101210.0
2022-10-01T20:58:36.587Z,101220.0
2022-10-01T21:03:36.586Z,101220.0
2022-10-01T21:08:36.589Z,101220.0
2022-10-01T21:13:36.626Z,101220.0
2022-10-01T21:18:36.595Z,101230.0
2022-10-01T21:23:36.601Z,101250.0
2022-10-01T21:28:36.606Z,101240.0
2022-10-01T21:33:36.601Z,101250.0
2022-10-01T21:38:36.608Z,101260.0
2022-10-01T21:43:36.605Z,101260.0
2022-10-01T21:48:36.602Z,101260.0
2022-10-01T21:53:36.613Z,101270.0
2022-10-01T21:58:36.609Z,101280.0
2022-10-01T22:03:36.613Z,101280.0
2022-10-01T22:08:36.622Z,101280.0
2022-10-01T22:13:36.634Z,101290.0
2022-10-01T22:18:36.626Z,101290.0
2022-10-01T22:23:36.626Z,101290.0
2022-10-01T22:28:36.628Z,101290.0
2022-10-01T22:33:36.632Z,101300.0
2022-10-01T22:38:36.637Z,101300.0
2022-10-01T22:43:36.641Z,101310.0
2022-10-01T22:48:36.644Z,101300.0
2022-10-01T22:53:36.653Z,101300.0
2022-10-01T22:58:36.647Z,101310.0
2022-10-01T23:03:36.645Z,101310.0
2022-10-01T23:08:36.651Z,101310.0
2022-10-01T23:13:36.661Z,101320.0
2022-10-01T23:18:36.650Z,101320.0
2022-10-01T23:23:36.662Z,101320.0
2022-10-01T23:28:36.658Z,101310.0
2022-10-01T23:33:36.671Z,101320.0
2022-10-01T23:38:36.668Z,101330.0
2022-10-01T23:43:36.680Z,101340.0
2022-10-01T23:48:36.685Z,101350.0
2022-10-01T23:53:36.682Z,101400.0
2022-10-01T23:58:36.682Z,101390.0
